createdAt,value
2022-11-17T00:00:10.872Z,8.60
2022-11-17T00:02:37.732Z,8.60
2022-11-17T00:05:04.809Z,8.70
2022-11-17T00:07:31.511Z,8.80
2022-11-17T00:09:58.217Z,8.80
2022-11-17T00:12:43.437Z,8.80
2022-11-17T00:15:10.160Z,8.80
2022-11-17T00:17:36.816Z,8.70
2022-11-17T00:20:22.551Z,8.70
2022-11-17T00:22:49.345Z,8.80
2022-11-17T00:25:15.968Z,8.80
2022-11-17T00:27:42.531Z,8.80
2022-11-17T00:30:09.513Z,8.70
2022-11-17T00:32:54.901Z,8.80
2022-11-17T00:35:21.523Z,8.80
2022-11-17T00:38:14.205Z,8.80
2022-11-17T00:40:40.837Z,8.80
2022-11-17T00:43:07.383Z,8.70
2022-11-17T00:45:33.965Z,8.70
2022-11-17T00:48:00.598Z,8.60
2022-11-17T00:50:27.242Z,8.70
2022-11-17T00:52:53.870Z,8.70
2022-11-17T00:55:20.583Z,8.80
2022-11-17T00:57:47.231Z,8.80
2022-11-17T01:00:14.249Z,8.80
2022-11-17T01:02:40.873Z,8.80
2022-11-17T01:05:07.846Z,8.80
2022-11-17T01:07:34.448Z,8.80
2022-11-17T01:10:01.215Z,8.70
2022-11-17T01:12:27.797Z,8.70
2022-11-17T01:14:54.383Z,8.60
2022-11-17T01:17:20.981Z,8.60
2022-11-17T01:19:49.131Z,8.50
2022-11-17T01:22:15.719Z,8.50
2022-11-17T01:24:42.310Z,8.60
2022-11-17T01:27:08.962Z,8.60
2022-11-17T01:29:35.544Z,8.60
2022-11-17T01:32:02.146Z,8.60
2022-11-17T01:34:28.737Z,8.60
2022-11-17T01:37:13.820Z,8.70
2022-11-17T01:39:40.477Z,8.70
2022-11-17T01:42:16.011Z,8.70
2022-11-17T01:45:05.233Z,8.70
2022-11-17T01:48:07.359Z,8.70
2022-11-17T01:50:47.087Z,8.80
2022-11-17T01:53:17.545Z,8.80
2022-11-17T01:55:47.707Z,8.80
2022-11-17T01:58:32.906Z,8.80
2022-11-17T02:00:59.583Z,8.90
2022-11-17T02:03:27.801Z,8.90
2022-11-17T02:06:04.561Z,8.90
2022-11-17T02:08:32.777Z,8.90
2022-11-17T02:11:02.560Z,8.90
2022-11-17T02:13:29.305Z,8.90
2022-11-17T02:15:55.906Z,9.00
2022-11-17T02:18:22.631Z,8.90
2022-11-17T02:21:10.456Z,8.90
2022-11-17T02:23:48.421Z,8.80
2022-11-17T02:26:45.865Z,8.80
2022-11-17T02:29:22.182Z,8.70
2022-11-17T02:31:54.732Z,8.80
2022-11-17T02:34:41.249Z,8.80
2022-11-17T02:37:22.934Z,8.80
2022-11-17T02:40:40.468Z,8.80
2022-11-17T02:43:31.915Z,8.80
2022-11-17T02:46:05.670Z,8.80
2022-11-17T02:48:36.826Z,8.80
2022-11-17T02:51:04.908Z,8.90
2022-11-17T02:53:32.661Z,8.90
2022-11-17T02:56:01.757Z,8.90
2022-11-17T02:58:29.925Z,8.90
2022-11-17T03:01:17.759Z,8.90
2022-11-17T03:03:54.787Z,8.90
2022-11-17T03:06:42.444Z,8.90
2022-11-17T03:09:09.033Z,8.90
2022-11-17T03:11:59.109Z,8.80
2022-11-17T03:14:44.358Z,8.70
2022-11-17T03:17:23.843Z,8.60
2022-11-17T03:20:01.895Z,8.60
2022-11-17T03:22:33.226Z,8.60
2022-11-17T03:25:04.955Z,8.60
2022-11-17T03:27:39.094Z,8.70
2022-11-17T03:30:08.407Z,8.60
2022-11-17T03:32:38.403Z,8.60
2022-11-17T03:35:15.938Z,8.60
2022-11-17T03:37:58.821Z,8.70
2022-11-17T03:40:32.269Z,8.70
2022-11-17T03:43:06.047Z,8.70
2022-11-17T03:45:35.842Z,8.70
2022-11-17T03:48:16.563Z,8.80
2022-11-17T03:50:48.415Z,8.80
2022-11-17T03:53:15.173Z,8.80
2022-11-17T03:56:02.706Z,8.90
2022-11-17T03:58:33.595Z,8.90
2022-11-17T04:01:04.451Z,9.00
2022-11-17T04:03:34.534Z,9.00
2022-11-17T04:06:01.825Z,9.00
2022-11-17T04:08:30.625Z,9.00
2022-11-17T04:11:16.334Z,9.00
2022-11-17T04:14:01.562Z,9.00
2022-11-17T04:16:28.209Z,9.10
2022-11-17T04:18:58.827Z,9.00
2022-11-17T04:21:26.132Z,9.00
2022-11-17T04:23:52.834Z,9.00
2022-11-17T04:26:37.913Z,9.00
2022-11-17T04:29:04.614Z,9.10
2022-11-17T04:31:32.077Z,9.00
2022-11-17T04:34:01.094Z,9.10
2022-11-17T04:36:30.004Z,9.10
2022-11-17T04:38:58.801Z,9.00
2022-11-17T04:41:45.759Z,9.00
2022-11-17T04:44:13.805Z,8.90
2022-11-17T04:46:40.769Z,9.00
2022-11-17T04:49:08.283Z,8.90
2022-11-17T04:51:35.870Z,8.90
2022-11-17T04:54:03.799Z,8.90
2022-11-17T04:56:30.568Z,8.80
2022-11-17T04:58:57.277Z,8.80
2022-11-17T05:01:27.584Z,8.80
2022-11-17T05:03:56.810Z,8.70
2022-11-17T05:06:26.173Z,8.70
2022-11-17T05:08:56.599Z,8.70
2022-11-17T05:11:43.899Z,8.70
2022-11-17T05:14:11.939Z,8.80
2022-11-17T05:16:57.443Z,8.80
2022-11-17T05:19:26.404Z,8.80
2022-11-17T05:21:53.418Z,8.70
2022-11-17T05:24:20.398Z,8.70
2022-11-17T05:26:48.695Z,8.60
2022-11-17T05:29:17.794Z,8.60
2022-11-17T05:31:44.991Z,8.60
2022-11-17T05:34:13.565Z,8.60
2022-11-17T05:36:41.020Z,8.60
2022-11-17T05:39:09.013Z,8.60
2022-11-17T05:41:37.059Z,8.50
2022-11-17T05:44:04.722Z,8.50
2022-11-17T05:46:31.582Z,8.50
2022-11-17T05:48:58.319Z,8.50
2022-11-17T05:51:25.247Z,8.50
2022-11-17T05:53:51.824Z,8.40
2022-11-17T05:56:35.358Z,8.50
2022-11-17T05:59:17.136Z,8.40
2022-11-17T06:02:15.489Z,8.30
2022-11-17T06:04:43.309Z,8.40
2022-11-17T06:07:10.599Z,8.30
2022-11-17T06:09:41.287Z,8.30
2022-11-17T06:12:08.110Z,8.20
2022-11-17T06:14:35.565Z,8.20
2022-11-17T06:17:09.244Z,8.00
2022-11-17T06:19:40.345Z,8.00
2022-11-17T06:22:14.549Z,7.90
2022-11-17T06:24:44.972Z,7.80
2022-11-17T06:27:15.362Z,7.80
2022-11-17T06:29:44.825Z,7.70
2022-11-17T06:32:14.428Z,7.70
2022-11-17T06:34:42.715Z,7.60
2022-11-17T06:37:11.137Z,7.60
2022-11-17T06:39:37.729Z,7.60
2022-11-17T06:42:04.408Z,7.60
2022-11-17T06:44:31.442Z,7.60
2022-11-17T06:46:58.072Z,7.60
2022-11-17T06:49:24.831Z,7.60
2022-11-17T06:51:52.047Z,7.50
2022-11-17T06:54:18.728Z,7.60
2022-11-17T06:56:45.491Z,7.60
2022-11-17T06:59:12.181Z,7.60
2022-11-17T07:01:38.856Z,7.60
2022-11-17T07:04:05.563Z,7.70
2022-11-17T07:06:35.553Z,7.80
2022-11-17T07:09:02.230Z,7.70
2022-11-17T07:11:28.891Z,7.80
2022-11-17T07:13:56.812Z,7.80
2022-11-17T07:16:24.173Z,7.90
2022-11-17T07:18:52.176Z,8.00
2022-11-17T07:21:18.924Z,8.40
2022-11-17T07:23:46.109Z,8.60
2022-11-17T07:26:13.044Z,8.90
2022-11-17T07:28:39.759Z,9.00
2022-11-17T07:31:08.751Z,9.10
2022-11-17T07:33:36.031Z,9.50
2022-11-17T07:36:07.719Z,9.60
2022-11-17T07:38:35.690Z,9.70
2022-11-17T07:41:03.371Z,9.80
2022-11-17T07:43:30.154Z,9.90
2022-11-17T07:45:57.039Z,10.00
2022-11-17T07:48:23.765Z,10.10
2022-11-17T07:50:50.590Z,10.20
2022-11-17T07:53:17.312Z,10.30
2022-11-17T07:55:44.033Z,10.30
2022-11-17T07:58:10.651Z,10.30
2022-11-17T08:00:37.387Z,10.30
2022-11-17T08:03:05.140Z,10.40
2022-11-17T08:05:41.697Z,10.40
2022-11-17T08:08:10.241Z,10.50
2022-11-17T08:10:37.050Z,10.50
2022-11-17T08:13:04.144Z,10.60
2022-11-17T08:15:31.668Z,10.60
2022-11-17T08:18:00.194Z,10.60
2022-11-17T08:20:29.173Z,10.60
2022-11-17T08:22:56.528Z,10.70
2022-11-17T08:25:25.078Z,10.70
2022-11-17T08:27:55.840Z,10.80
2022-11-17T08:30:24.374Z,10.80
2022-11-17T08:32:53.065Z,10.90
2022-11-17T08:35:22.199Z,10.90
2022-11-17T08:37:48.926Z,11.00
2022-11-17T08:40:18.034Z,11.00
2022-11-17T08:42:45.418Z,11.10
2022-11-17T08:45:12.484Z,11.10
2022-11-17T08:47:39.647Z,11.20
2022-11-17T08:50:07.038Z,11.20
2022-11-17T08:52:34.224Z,11.30
2022-11-17T08:55:01.043Z,11.30
2022-11-17T08:57:29.910Z,11.40
2022-11-17T08:59:56.622Z,11.50
2022-11-17T09:02:23.372Z,11.50
2022-11-17T09:04:50.579Z,11.50
2022-11-17T09:07:18.002Z,11.60
2022-11-17T09:09:46.187Z,11.60
2022-11-17T09:12:12.849Z,11.70
2022-11-17T09:14:39.446Z,11.70
2022-11-17T09:17:06.338Z,11.80
2022-11-17T09:19:32.975Z,11.80
2022-11-17T09:21:59.835Z,11.80
2022-11-17T09:24:26.711Z,11.90
2022-11-17T09:26:54.878Z,11.90
2022-11-17T09:29:21.837Z,12.00
2022-11-17T09:31:48.621Z,12.00
2022-11-17T09:34:16.444Z,12.00
2022-11-17T09:36:43.123Z,12.00
2022-11-17T09:39:09.980Z,12.00
2022-11-17T09:41:52.336Z,12.00
2022-11-17T09:44:28.757Z,12.00
2022-11-17T09:47:10.340Z,12.00
2022-11-17T09:49:42.578Z,12.10
2022-11-17T09:52:43.614Z,12.10
2022-11-17T09:55:27.265Z,12.10
2022-11-17T09:58:34.710Z,12.20
2022-11-17T10:01:02.205Z,12.20
2022-11-17T10:03:43.651Z,12.20
2022-11-17T10:06:24.362Z,12.10
2022-11-17T10:09:22.476Z,11.90
2022-11-17T10:11:54.261Z,11.80
2022-11-17T10:14:22.204Z,11.60
2022-11-17T10:16:57.076Z,11.70
2022-11-17T10:19:27.885Z,11.60
2022-11-17T10:22:10.318Z,11.60
2022-11-17T10:24:42.870Z,11.70
2022-11-17T10:27:22.786Z,11.70
2022-11-17T10:30:19.833Z,11.80
2022-11-17T10:33:04.937Z,11.80
2022-11-17T10:35:35.503Z,11.90
2022-11-17T10:38:06.837Z,11.90
2022-11-17T10:40:49.617Z,12.00
2022-11-17T10:43:21.270Z,12.00
2022-11-17T10:46:04.023Z,12.00
2022-11-17T10:48:38.438Z,12.10
2022-11-17T10:51:20.923Z,12.20
2022-11-17T10:54:06.147Z,12.30
2022-11-17T10:56:45.079Z,12.30
2022-11-17T10:59:16.425Z,12.40
2022-11-17T11:01:46.195Z,12.40
2022-11-17T11:04:33.164Z,12.40
2022-11-17T11:07:22.566Z,12.50
2022-11-17T11:10:04.249Z,12.50
2022-11-17T11:12:43.719Z,12.50
2022-11-17T11:15:22.312Z,12.60
2022-11-17T11:17:49.754Z,12.60
2022-11-17T11:20:24.322Z,12.60
2022-11-17T11:28:47.946Z,12.60
2022-11-17T11:31:34.185Z,12.70
2022-11-17T11:34:15.245Z,12.80
2022-11-17T11:36:50.508Z,12.80
2022-11-17T11:39:29.021Z,12.90
2022-11-17T11:42:15.477Z,12.90
2022-11-17T11:45:12.776Z,13.00
2022-11-17T11:47:48.285Z,13.00
2022-11-17T11:50:22.331Z,13.00
2022-11-17T11:53:05.609Z,13.10
2022-11-17T11:55:36.294Z,13.20
2022-11-17T11:58:38.049Z,13.20
2022-11-17T12:01:08.344Z,13.20
2022-11-17T12:03:43.950Z,13.20
2022-11-17T12:06:32.232Z,13.30
2022-11-17T12:09:08.622Z,13.30
2022-11-17T12:12:09.384Z,13.30
2022-11-17T12:14:37.831Z,13.40
2022-11-17T12:17:13.654Z,13.50
2022-11-17T12:19:57.701Z,13.40
2022-11-17T12:22:30.346Z,13.40
2022-11-17T12:24:59.472Z,13.40
2022-11-17T12:27:35.350Z,13.40
2022-11-17T12:30:04.088Z,13.40
2022-11-17T12:32:48.987Z,13.40
2022-11-17T12:35:28.921Z,13.40
2022-11-17T12:38:15.218Z,13.50
2022-11-17T12:40:47.382Z,13.40
2022-11-17T12:43:19.564Z,13.40
2022-11-17T12:45:58.052Z,13.40
2022-11-17T12:48:35.599Z,13.40
2022-11-17T12:51:14.531Z,13.50
2022-11-17T12:54:06.479Z,13.50
2022-11-17T12:56:41.687Z,13.50
2022-11-17T12:59:43.924Z,13.50
2022-11-17T13:02:32.232Z,13.50
2022-11-17T13:05:17.796Z,13.50
2022-11-17T13:07:44.812Z,13.40
2022-11-17T13:10:25.062Z,13.40
2022-11-17T13:13:12.928Z,13.40
2022-11-17T13:15:40.857Z,13.40
2022-11-17T13:18:32.513Z,13.40
2022-11-17T13:21:01.072Z,13.50
2022-11-17T13:23:30.603Z,13.50
2022-11-17T13:26:18.750Z,13.50
2022-11-17T13:28:46.143Z,13.40
2022-11-17T13:31:23.414Z,13.50
2022-11-17T13:34:19.249Z,13.40
2022-11-17T13:37:00.394Z,13.30
2022-11-17T13:39:28.163Z,13.30
2022-11-17T13:41:56.701Z,13.30
2022-11-17T13:44:25.396Z,13.30
2022-11-17T13:46:52.057Z,13.30
2022-11-17T13:49:38.548Z,13.20
2022-11-17T13:52:14.161Z,13.20
2022-11-17T13:54:44.897Z,13.20
2022-11-17T13:57:22.818Z,13.20
2022-11-17T13:59:50.070Z,13.20
2022-11-17T14:02:16.733Z,13.10
2022-11-17T14:05:09.274Z,13.20
2022-11-17T14:07:37.990Z,13.10
2022-11-17T14:10:22.855Z,13.10
2022-11-17T14:13:14.032Z,13.00
2022-11-17T14:15:42.311Z,13.10
2022-11-17T14:18:38.834Z,13.10
2022-11-17T14:21:14.983Z,13.20
2022-11-17T14:23:43.128Z,13.00
2022-11-17T14:26:24.434Z,13.10
2022-11-17T14:28:52.012Z,13.10
2022-11-17T14:31:19.404Z,13.20
2022-11-17T14:33:46.704Z,13.20
2022-11-17T14:36:15.873Z,13.30
2022-11-17T14:38:44.825Z,13.30
2022-11-17T14:41:11.509Z,13.30
2022-11-17T14:43:38.173Z,13.30
2022-11-17T14:46:05.150Z,13.40
2022-11-17T14:48:31.973Z,13.40
2022-11-17T14:50:59.510Z,13.50
2022-11-17T14:53:26.670Z,13.50
2022-11-17T14:55:53.365Z,13.50
2022-11-17T14:58:20.507Z,13.50
2022-11-17T15:00:47.513Z,13.40
2022-11-17T15:03:14.378Z,13.40
2022-11-17T15:05:48.211Z,13.40
2022-11-17T15:08:14.891Z,13.30
2022-11-17T15:10:45.490Z,13.40
2022-11-17T15:13:12.549Z,13.30
2022-11-17T15:15:39.270Z,13.30
2022-11-17T15:18:06.126Z,13.30
2022-11-17T15:20:32.779Z,13.30
2022-11-17T15:23:03.173Z,13.30
2022-11-17T15:25:30.227Z,13.30
2022-11-17T15:27:56.916Z,13.30
2022-11-17T15:30:23.734Z,13.30
2022-11-17T15:32:50.425Z,13.30
2022-11-17T15:35:17.142Z,13.30
2022-11-17T15:37:43.810Z,13.20
2022-11-17T15:40:12.973Z,13.20
2022-11-17T15:42:43.887Z,13.20
2022-11-17T15:45:10.641Z,13.20
2022-11-17T15:47:37.287Z,13.20
2022-11-17T15:50:04.909Z,13.20
2022-11-17T15:52:56.547Z,13.20
2022-11-17T15:55:18.129Z,13.10
2022-11-17T15:57:44.975Z,13.10
2022-11-17T16:00:13.213Z,13.00
2022-11-17T16:02:42.144Z,12.90
2022-11-17T16:05:08.865Z,12.90
2022-11-17T16:07:35.536Z,12.80
2022-11-17T16:10:02.321Z,12.70
2022-11-17T16:12:28.958Z,12.70
2022-11-17T16:14:55.654Z,12.60
2022-11-17T16:17:22.594Z,12.50
2022-11-17T16:19:49.237Z,12.50
2022-11-17T16:22:15.861Z,12.50
2022-11-17T16:24:42.429Z,12.40
2022-11-17T16:27:10.527Z,12.30
2022-11-17T16:29:38.779Z,12.30
2022-11-17T16:32:05.584Z,12.30
2022-11-17T16:34:32.222Z,12.20
2022-11-17T16:36:58.858Z,12.20
2022-11-17T16:39:25.445Z,12.20
2022-11-17T16:41:52.958Z,12.10
2022-11-17T16:44:20.439Z,12.10
2022-11-17T16:46:48.562Z,12.10
2022-11-17T16:49:16.908Z,12.10
2022-11-17T16:51:48.588Z,12.10
2022-11-17T16:54:15.567Z,12.10
2022-11-17T16:56:42.267Z,12.00
2022-11-17T16:59:10.581Z,11.90
2022-11-17T17:01:37.187Z,11.90
2022-11-17T17:04:06.765Z,11.90
2022-11-17T17:06:34.758Z,11.80
2022-11-17T17:09:04.573Z,11.80
2022-11-17T17:11:32.751Z,11.80
2022-11-17T17:14:02.854Z,11.80
2022-11-17T17:16:31.109Z,11.80
2022-11-17T17:18:59.805Z,11.80
2022-11-17T17:21:27.985Z,11.80
2022-11-17T17:23:54.885Z,11.90
2022-11-17T17:26:22.985Z,12.00
2022-11-17T17:28:51.938Z,12.00
2022-11-17T17:31:22.183Z,12.00
2022-11-17T17:33:50.220Z,12.00
2022-11-17T17:36:19.312Z,12.00
2022-11-17T17:38:51.659Z,11.90
2022-11-17T17:41:22.489Z,11.80
2022-11-17T17:43:55.110Z,11.80
2022-11-17T17:46:21.880Z,11.70
2022-11-17T17:48:48.475Z,11.70
2022-11-17T17:51:17.823Z,11.70
2022-11-17T17:53:45.114Z,11.70
2022-11-17T17:56:13.837Z,11.60
2022-11-17T17:58:41.180Z,11.50
2022-11-17T18:01:16.167Z,11.50
2022-11-17T18:03:48.070Z,11.50
2022-11-17T18:06:16.759Z,11.60
2022-11-17T18:08:43.695Z,11.50
2022-11-17T18:11:13.057Z,11.60
2022-11-17T18:13:42.256Z,11.60
2022-11-17T18:16:12.094Z,11.60
2022-11-17T18:18:39.567Z,11.40
2022-11-17T18:21:11.958Z,11.40
2022-11-17T18:23:38.821Z,11.50
2022-11-17T18:26:11.900Z,11.50
2022-11-17T18:28:39.518Z,11.40
2022-11-17T18:31:08.083Z,11.30
2022-11-17T18:33:35.357Z,11.30
2022-11-17T18:36:07.630Z,11.40
2022-11-17T18:38:35.926Z,11.50
2022-11-17T18:41:07.503Z,11.40
2022-11-17T18:43:34.954Z,11.40
2022-11-17T18:46:13.184Z,11.40
2022-11-17T18:48:41.887Z,11.40
2022-11-17T18:51:20.622Z,11.30
2022-11-17T18:53:49.057Z,11.30
2022-11-17T18:56:18.514Z,11.30
2022-11-17T18:58:45.348Z,11.30
2022-11-17T19:01:17.695Z,11.30
2022-11-17T19:03:46.979Z,11.30
2022-11-17T19:06:15.238Z,11.20
2022-11-17T19:08:42.164Z,11.20
2022-11-17T19:11:09.673Z,11.30
2022-11-17T19:13:39.380Z,11.30
2022-11-17T19:16:10.442Z,11.30
2022-11-17T19:18:37.306Z,11.40
2022-11-17T19:21:09.426Z,11.40
2022-11-17T19:23:38.014Z,11.40
2022-11-17T19:26:06.784Z,11.30
2022-11-17T19:28:34.037Z,11.30
2022-11-17T19:31:09.357Z,11.30
2022-11-17T19:33:37.397Z,11.40
2022-11-17T19:36:05.714Z,11.40
2022-11-17T19:38:33.930Z,11.30
2022-11-17T19:41:05.255Z,11.30
2022-11-17T19:43:33.156Z,11.30
2022-11-17T19:46:01.096Z,11.30
2022-11-17T19:48:29.532Z,11.40
2022-11-17T19:50:57.373Z,11.30
2022-11-17T19:53:24.519Z,11.30
2022-11-17T19:55:51.605Z,11.30
2022-11-17T19:58:19.977Z,11.40
2022-11-17T20:00:48.547Z,11.30
2022-11-17T20:03:18.079Z,11.30
2022-11-17T20:05:45.488Z,11.40
2022-11-17T20:08:12.235Z,11.40
2022-11-17T20:10:38.834Z,11.40
2022-11-17T20:13:05.776Z,11.40
2022-11-17T20:15:34.761Z,11.40
2022-11-17T20:18:01.890Z,11.40
2022-11-17T20:20:28.487Z,11.40
2022-11-17T20:22:55.919Z,11.40
2022-11-17T20:25:22.597Z,11.40
2022-11-17T20:27:49.261Z,11.30
2022-11-17T20:30:16.189Z,11.30
2022-11-17T20:32:42.790Z,11.30
2022-11-17T20:35:09.507Z,11.30
2022-11-17T20:37:36.089Z,11.20
2022-11-17T20:40:02.720Z,11.20
2022-11-17T20:42:29.479Z,11.20
2022-11-17T20:44:56.095Z,11.20
2022-11-17T20:47:27.362Z,11.30
2022-11-17T20:49:55.146Z,11.20
2022-11-17T20:52:21.767Z,11.20
2022-11-17T20:54:48.420Z,11.20
2022-11-17T20:57:15.172Z,11.20
2022-11-17T20:59:41.789Z,11.20
2022-11-17T21:02:10.695Z,11.10
2022-11-17T21:04:37.294Z,11.20
2022-11-17T21:07:04.178Z,11.20
2022-11-17T21:09:30.852Z,11.20
2022-11-17T21:11:57.495Z,11.10
2022-11-17T21:14:28.714Z,11.10
2022-11-17T21:16:57.868Z,11.10
2022-11-17T21:19:24.578Z,11.10
2022-11-17T21:21:53.987Z,11.20
2022-11-17T21:24:21.912Z,11.10
2022-11-17T21:26:50.795Z,11.10
2022-11-17T21:29:17.757Z,11.10
2022-11-17T21:31:44.595Z,11.10
2022-11-17T21:34:15.364Z,11.00
2022-11-17T21:36:42.237Z,11.00
2022-11-17T21:39:08.979Z,11.00
2022-11-17T21:41:36.065Z,10.90
2022-11-17T21:44:03.954Z,10.90
2022-11-17T21:46:33.071Z,10.90
2022-11-17T21:49:00.522Z,10.90
2022-11-17T21:51:29.895Z,10.90
2022-11-17T21:53:57.967Z,11.00
2022-11-17T21:56:26.760Z,10.90
2022-11-17T21:59:09.570Z,10.90
2022-11-17T22:01:36.365Z,10.80
2022-11-17T22:04:03.216Z,10.80
2022-11-17T22:06:30.260Z,10.70
2022-11-17T22:08:58.594Z,10.70
2022-11-17T22:11:35.278Z,10.60
2022-11-17T22:14:10.944Z,10.60
2022-11-17T22:16:40.200Z,10.50
2022-11-17T22:19:08.028Z,10.40
2022-11-17T22:21:36.455Z,10.40
2022-11-17T22:24:08.273Z,10.40
2022-11-17T22:26:38.359Z,10.40
2022-11-17T22:29:06.832Z,10.50
2022-11-17T22:31:33.590Z,10.40
2022-11-17T22:34:00.266Z,10.40
2022-11-17T22:36:26.860Z,10.30
2022-11-17T22:38:53.574Z,10.30
2022-11-17T22:41:21.623Z,10.30
2022-11-17T22:43:52.726Z,10.30
2022-11-17T22:46:20.653Z,10.30
2022-11-17T22:48:48.009Z,10.30
2022-11-17T22:51:38.066Z,10.30
2022-11-17T22:54:05.949Z,10.40
2022-11-17T22:56:33.268Z,10.30
2022-11-17T22:59:00.260Z,10.40
2022-11-17T23:01:27.218Z,10.40
2022-11-17T23:03:53.906Z,10.40
2022-11-17T23:06:22.448Z,10.40
2022-11-17T23:08:49.618Z,10.50
2022-11-17T23:11:36.026Z,10.50
2022-11-17T23:14:03.665Z,10.50
2022-11-17T23:16:30.578Z,10.50
2022-11-17T23:18:57.477Z,10.60
2022-11-17T23:21:24.461Z,10.50
2022-11-17T23:23:51.529Z,10.50
2022-11-17T23:26:18.497Z,10.60
2022-11-17T23:28:45.175Z,10.60
2022-11-17T23:31:14.294Z,10.60
2022-11-17T23:33:43.926Z,10.60
2022-11-17T23:36:16.283Z,10.60
2022-11-17T23:38:43.304Z,10.50
2022-11-17T23:41:12.830Z,10.50
2022-11-17T23:43:40.048Z,10.50
2022-11-17T23:46:13.077Z,10.60
2022-11-17T23:48:40.119Z,10.50
2022-11-17T23:51:08.965Z,10.50
2022-11-17T23:53:35.879Z,10.40
2022-11-17T23:56:03.412Z,10.40
2022-11-17T23:58:30.263Z,10.30
